createdAt,value
2019-04-23T00:00:45.501Z,2.9
2019-04-23T00:01:49.272Z,3.0
2019-04-23T00:02:50.661Z,3.3
2019-04-23T00:03:47.628Z,3.3
2019-04-23T00:04:48.053Z,3.5
2019-04-23T00:06:15.196Z,2.7
2019-04-23T00:06:59.370Z,3.1
2019-04-23T00:07:56.187Z,2.9
2019-04-23T00:08:58.099Z,3.1
2019-04-23T00:10:07.928Z,3.2
2019-04-23T00:10:58.920Z,3.3
2019-04-23T00:12:01.814Z,3.2
2019-04-23T00:13:12.867Z,3.5
2019-04-23T00:14:05.671Z,3.5
2019-04-23T00:15:07.538Z,3.1
2019-04-23T00:16:13.528Z,3.2
2019-04-23T00:17:11.519Z,4.6
2019-04-23T00:18:07.872Z,4.1
2019-04-23T00:19:02.558Z,3.2
2019-04-23T00:20:09.573Z,3.1
2019-04-23T00:21:13.750Z,3.1
2019-04-23T00:22:07.299Z,3.3
2019-04-23T00:23:10.918Z,3.1
2019-04-23T00:24:23.317Z,3.7
2019-04-23T00:28:24.397Z,3.1
2019-04-23T00:29:19.006Z,3.4
2019-04-23T00:30:31.388Z,3.5
2019-04-23T00:31:23.993Z,3.6
2019-04-23T00:33:27.031Z,4.7
2019-04-23T00:34:38.071Z,4.0
2019-04-23T00:35:26.080Z,3.5
2019-04-23T00:36:32.163Z,4.0
2019-04-23T00:38:33.855Z,3.9
2019-04-23T00:39:34.341Z,3.4
2019-04-23T00:40:31.786Z,3.9
2019-04-23T00:41:38.650Z,3.7
2019-04-23T00:42:38.505Z,3.5
2019-04-23T00:43:38.913Z,3.6
2019-04-23T00:44:40.116Z,3.8
2019-04-23T00:45:41.215Z,3.6
2019-04-23T00:47:38.434Z,3.9
2019-04-23T00:48:44.089Z,3.8
2019-04-23T00:49:40.339Z,4.2
2019-04-23T00:50:49.199Z,3.9
2019-04-23T00:51:47.738Z,3.9
2019-04-23T00:52:45.844Z,3.9
2019-04-23T00:53:44.209Z,3.8
2019-04-23T00:54:51.912Z,3.8
2019-04-23T00:55:47.631Z,4.0
2019-04-23T00:56:54.484Z,3.6
2019-04-23T00:57:48.759Z,3.6
2019-04-23T00:58:56.462Z,3.6
2019-04-23T01:00:52.797Z,4.0
2019-04-23T01:01:56.576Z,4.1
2019-04-23T01:02:59.049Z,4.4
2019-04-23T01:03:58.280Z,3.6
2019-04-23T01:05:04.833Z,4.6
2019-04-23T01:06:00.627Z,4.1
2019-04-23T01:08:07.061Z,3.7
2019-04-23T01:09:03.847Z,4.6
2019-04-23T01:10:10.138Z,4.2
2019-04-23T01:11:21.067Z,4.6
2019-04-23T01:12:14.142Z,4.1
2019-04-23T01:13:14.952Z,4.3
2019-04-23T01:14:08.316Z,4.0
2019-04-23T01:16:11.615Z,4.4
2019-04-23T01:17:18.570Z,4.3
2019-04-23T01:18:19.068Z,5.0
2019-04-23T01:19:20.692Z,4.8
2019-04-23T01:20:14.592Z,4.3
2019-04-23T01:20:56.460Z,4.8
2019-04-23T01:21:57.936Z,4.4
2019-04-23T01:22:58.979Z,4.2
2019-04-23T01:24:05.693Z,4.4
2019-04-23T01:25:10.793Z,4.4
2019-04-23T01:26:20.700Z,4.3
2019-04-23T01:27:49.168Z,4.9
2019-04-23T01:28:26.683Z,5.0
2019-04-23T01:29:34.078Z,4.8
2019-04-23T01:30:27.930Z,4.4
2019-04-23T01:31:49.276Z,4.5
2019-04-23T01:32:32.116Z,5.1
2019-04-23T01:33:43.107Z,4.6
2019-04-23T01:34:42.450Z,5.2
2019-04-23T01:35:34.217Z,5.3
2019-04-23T01:36:51.598Z,4.8
2019-04-23T01:38:45.879Z,5.3
2019-04-23T01:39:49.964Z,5.2
2019-04-23T01:40:40.755Z,4.7
2019-04-23T01:41:50.791Z,5.1
2019-04-23T01:43:00.015Z,5.5
2019-04-23T01:43:47.121Z,4.8
2019-04-23T01:44:54.117Z,4.9
2019-04-23T01:45:40.975Z,4.6
2019-04-23T01:46:56.120Z,5.2
2019-04-23T01:50:06.651Z,4.9
2019-04-23T01:52:00.299Z,5.2
2019-04-23T01:54:01.795Z,5.9
2019-04-23T01:55:08.137Z,5.3
2019-04-23T01:57:09.422Z,5.5
2019-04-23T01:58:26.095Z,5.6
2019-04-23T01:59:12.403Z,5.4
2019-04-23T02:00:16.134Z,5.4
2019-04-23T02:01:11.636Z,6.2
2019-04-23T02:02:14.382Z,5.4
2019-04-23T02:03:15.530Z,5.7
2019-04-23T02:04:26.579Z,5.7
2019-04-23T02:05:24.526Z,5.7
2019-04-23T02:06:20.544Z,6.2
2019-04-23T02:07:24.368Z,7.1
2019-04-23T02:08:19.342Z,6.0
2019-04-23T02:09:25.305Z,5.9
2019-04-23T02:10:29.550Z,5.7
2019-04-23T02:11:25.559Z,6.3
2019-04-23T02:12:22.322Z,6.1
2019-04-23T02:13:33.910Z,6.3
2019-04-23T02:14:29.652Z,6.0
2019-04-23T02:15:34.982Z,6.7
2019-04-23T02:16:33.914Z,6.4
2019-04-23T02:17:26.742Z,6.1
2019-04-23T02:18:33.897Z,6.6
2019-04-23T02:19:44.300Z,6.6
2019-04-23T02:20:36.035Z,7.1
2019-04-23T02:22:56.272Z,7.2
2019-04-23T02:23:35.866Z,6.4
2019-04-23T02:24:41.392Z,6.9
2019-04-23T02:25:44.310Z,7.1
2019-04-23T02:27:43.846Z,7.3
2019-04-23T02:28:49.351Z,6.6
2019-04-23T02:29:51.276Z,7.0
2019-04-23T02:31:58.255Z,7.1
2019-04-23T02:33:12.815Z,7.1
2019-04-23T02:35:16.981Z,8.2
2019-04-23T02:37:00.340Z,8.1
2019-04-23T02:38:27.329Z,8.0
2019-04-23T02:38:55.477Z,7.5
2019-04-23T02:40:23.880Z,7.8
2019-04-23T02:42:25.127Z,7.6
2019-04-23T02:45:09.416Z,7.6
2019-04-23T02:49:32.312Z,7.7
2019-04-23T02:51:17.976Z,8.4
2019-04-23T02:52:21.787Z,8.1
2019-04-23T02:54:38.177Z,8.4
2019-04-23T02:55:39.254Z,8.1
2019-04-23T02:56:47.343Z,8.9
2019-04-23T02:57:41.544Z,8.7
2019-04-23T02:59:44.605Z,8.8
2019-04-23T03:01:31.566Z,8.5
2019-04-23T03:02:45.192Z,8.3
2019-04-23T03:03:42.828Z,8.5
2019-04-23T03:04:40.000Z,9.4
2019-04-23T03:05:46.015Z,8.9
2019-04-23T03:07:45.913Z,9.7
2019-04-23T03:10:56.607Z,8.9
2019-04-23T03:14:12.118Z,10.4
2019-04-23T03:15:06.232Z,10.4
2019-04-23T03:16:19.898Z,10.2
2019-04-23T03:18:12.424Z,10.7
2019-04-23T03:20:11.197Z,9.7
2019-04-23T03:23:22.873Z,10.2
2019-04-23T03:25:10.313Z,10.3
2019-04-23T03:26:26.328Z,10.0
2019-04-23T03:28:21.225Z,10.9
2019-04-23T03:29:21.843Z,11.5
2019-04-23T03:35:08.686Z,11.6
2019-04-23T03:36:37.976Z,11.7
2019-04-23T03:37:32.202Z,11.0
2019-04-23T03:38:38.009Z,12.0
2019-04-23T03:39:46.206Z,11.2
2019-04-23T03:40:46.262Z,11.9
2019-04-23T03:41:39.658Z,11.6
2019-04-23T03:42:53.862Z,12.4
2019-04-23T03:43:38.914Z,12.1
2019-04-23T03:44:49.604Z,11.8
2019-04-23T03:45:56.419Z,11.7
2019-04-23T03:46:49.897Z,12.0
2019-04-23T03:47:37.608Z,12.0
2019-04-23T03:49:48.721Z,13.0
2019-04-23T03:50:39.054Z,11.7
2019-04-23T03:51:56.795Z,11.9
2019-04-23T03:56:19.029Z,12.2
2019-04-23T03:57:52.368Z,12.2
2019-04-23T03:59:05.933Z,12.4
2019-04-23T04:00:03.478Z,13.1
2019-04-23T04:02:31.371Z,12.8
2019-04-23T04:04:22.630Z,13.1
2019-04-23T04:05:10.841Z,13.2
2019-04-23T04:08:56.027Z,13.2
2019-04-23T04:10:40.890Z,12.9
2019-04-23T04:11:19.245Z,11.8
2019-04-23T04:14:32.151Z,12.9
2019-04-23T04:16:28.281Z,12.5
2019-04-23T04:17:35.545Z,12.8
2019-04-23T04:18:48.878Z,13.1
2019-04-23T04:21:36.330Z,13.6
2019-04-23T04:22:46.657Z,13.5
2019-04-23T04:24:48.653Z,13.3
2019-04-23T04:25:41.177Z,13.5
2019-04-23T04:26:55.786Z,14.3
2019-04-23T04:28:03.567Z,14.2
2019-04-23T04:28:48.629Z,13.6
2019-04-23T04:30:00.999Z,14.1
2019-04-23T04:30:48.144Z,12.1
2019-04-23T04:32:00.272Z,14.2
2019-04-23T04:32:56.921Z,13.0
2019-04-23T04:35:12.556Z,13.1
2019-04-23T04:36:04.777Z,13.6
2019-04-23T04:38:09.430Z,13.7
2019-04-23T04:39:08.131Z,13.4
2019-04-23T04:40:23.563Z,13.5
2019-04-23T04:41:01.023Z,13.1
2019-04-23T04:42:06.103Z,13.0
2019-04-23T04:43:13.824Z,13.0
2019-04-23T04:44:33.335Z,13.8
2019-04-23T04:45:14.130Z,13.3
2019-04-23T04:47:09.857Z,12.7
2019-04-23T04:48:09.943Z,13.6
2019-04-23T04:49:12.085Z,13.3
2019-04-23T04:50:08.156Z,13.0
2019-04-23T04:51:24.261Z,12.5
2019-04-23T04:53:37.982Z,13.1
2019-04-23T04:54:21.232Z,12.2
2019-04-23T04:55:21.515Z,13.3
2019-04-23T04:56:35.976Z,13.3
2019-04-23T05:01:30.124Z,12.9
2019-04-23T05:03:29.638Z,13.4
2019-04-23T05:06:01.803Z,12.9
2019-04-23T05:06:44.306Z,12.1
2019-04-23T05:07:54.809Z,12.2
2019-04-23T05:12:54.992Z,12.2
2019-04-23T05:15:00.812Z,11.9
2019-04-23T05:15:51.851Z,11.8
2019-04-23T05:17:11.179Z,12.4
2019-04-23T05:17:59.634Z,11.7
2019-04-23T05:19:02.531Z,11.2
2019-04-23T05:19:58.280Z,11.6
2019-04-23T05:21:12.234Z,12.2
2019-04-23T05:23:08.810Z,11.7
2019-04-23T05:24:06.841Z,12.0
2019-04-23T05:24:57.140Z,12.4
2019-04-23T05:26:02.018Z,12.0
2019-04-23T05:27:04.623Z,11.7
2019-04-23T05:28:09.630Z,12.4
2019-04-23T05:29:06.414Z,12.4
2019-04-23T05:30:09.976Z,11.9
2019-04-23T05:31:05.741Z,11.9
2019-04-23T05:32:10.828Z,12.7
2019-04-23T05:33:14.539Z,11.4
2019-04-23T05:35:16.905Z,11.7
2019-04-23T05:36:22.836Z,11.0
2019-04-23T05:37:11.531Z,11.5
2019-04-23T05:39:27.991Z,10.6
2019-04-23T05:41:27.073Z,11.0
2019-04-23T05:42:19.828Z,11.6
2019-04-23T05:43:19.272Z,10.9
2019-04-23T05:44:41.686Z,10.6
2019-04-23T05:45:21.784Z,10.7
2019-04-23T05:46:33.812Z,10.8
2019-04-23T05:47:29.173Z,11.0
2019-04-23T05:48:24.854Z,10.0
2019-04-23T05:49:24.823Z,9.6
2019-04-23T05:50:39.165Z,9.6
2019-04-23T05:51:38.796Z,11.3
2019-04-23T05:53:33.902Z,9.0
2019-04-23T05:54:37.490Z,10.2
2019-04-23T05:55:34.079Z,9.4
2019-04-23T05:56:38.554Z,9.3
2019-04-23T05:57:38.910Z,9.6
2019-04-23T05:59:34.248Z,10.4
2019-04-23T06:00:48.834Z,10.1
2019-04-23T06:01:54.154Z,10.3
2019-04-23T06:02:48.572Z,11.3
2019-04-23T06:03:52.638Z,10.2
2019-04-23T06:04:49.628Z,9.4
2019-04-23T06:07:11.309Z,9.5
2019-04-23T06:08:53.482Z,9.0
2019-04-23T06:10:02.858Z,9.0
2019-04-23T06:10:58.681Z,9.6
2019-04-23T06:13:03.186Z,9.8
2019-04-23T06:14:09.754Z,9.3
2019-04-23T06:14:59.523Z,8.5
2019-04-23T06:16:12.283Z,8.5
2019-04-23T06:17:03.264Z,9.0
2019-04-23T06:18:14.523Z,8.9
2019-04-23T06:19:08.053Z,9.1
2019-04-23T06:20:09.244Z,9.5
2019-04-23T06:21:10.109Z,8.9
2019-04-23T06:22:28.877Z,9.1
2019-04-23T06:23:18.109Z,9.2
2019-04-23T06:24:19.652Z,9.1
2019-04-23T06:25:21.641Z,8.6
2019-04-23T06:26:24.351Z,8.5
2019-04-23T06:29:26.084Z,8.5
2019-04-23T06:31:03.053Z,9.5
2019-04-23T06:31:26.650Z,8.5
2019-04-23T06:32:22.765Z,9.1
2019-04-23T06:33:25.657Z,8.8
2019-04-23T06:34:33.914Z,9.0
2019-04-23T06:35:45.447Z,9.4
2019-04-23T06:37:39.735Z,8.7
2019-04-23T06:38:42.811Z,8.9
2019-04-23T06:39:38.184Z,8.8
2019-04-23T06:40:34.051Z,8.9
2019-04-23T06:41:36.225Z,8.7
2019-04-23T06:42:34.870Z,9.5
2019-04-23T06:43:42.287Z,8.7
2019-04-23T06:44:37.663Z,8.9
2019-04-23T06:45:41.672Z,9.3
2019-04-23T06:47:48.118Z,9.0
2019-04-23T06:48:47.215Z,9.3
2019-04-23T06:50:59.371Z,9.2
2019-04-23T06:52:06.752Z,9.2
2019-04-23T06:52:50.023Z,9.5
2019-04-23T06:53:53.373Z,9.3
2019-04-23T06:55:56.375Z,8.8
2019-04-23T06:57:57.100Z,9.6
2019-04-23T06:58:58.879Z,8.8
2019-04-23T07:00:02.404Z,8.5
2019-04-23T07:01:03.331Z,8.4
2019-04-23T07:02:06.409Z,8.7
2019-04-23T07:03:11.416Z,8.4
2019-04-23T07:04:06.320Z,8.9
2019-04-23T07:05:10.388Z,8.6
2019-04-23T07:07:30.955Z,8.7
2019-04-23T07:08:11.610Z,8.6
2019-04-23T07:09:12.083Z,8.6
2019-04-23T07:10:16.282Z,8.4
2019-04-23T07:12:18.169Z,9.2
2019-04-23T07:13:22.815Z,9.4
2019-04-23T07:14:25.600Z,9.7
2019-04-23T07:15:40.738Z,8.8
2019-04-23T07:16:16.160Z,9.0
2019-04-23T07:17:16.018Z,9.3
2019-04-23T07:18:23.741Z,9.1
2019-04-23T07:19:26.903Z,8.6
2019-04-23T07:20:21.509Z,9.1
2019-04-23T07:21:21.923Z,8.6
2019-04-23T07:22:21.672Z,8.4
2019-04-23T07:23:35.664Z,8.3
2019-04-23T07:24:21.535Z,8.3
2019-04-23T07:25:29.543Z,9.2
2019-04-23T07:27:27.749Z,8.6
2019-04-23T07:28:37.273Z,8.9
2019-04-23T07:29:31.299Z,8.7
2019-04-23T07:30:35.915Z,8.8
2019-04-23T07:31:50.974Z,8.7
2019-04-23T07:32:35.975Z,8.8
2019-04-23T07:33:44.012Z,8.7
2019-04-23T07:34:41.610Z,8.2
2019-04-23T07:35:39.793Z,8.6
2019-04-23T07:36:55.752Z,8.6
2019-04-23T07:37:53.529Z,8.5
2019-04-23T07:38:55.037Z,8.6
2019-04-23T07:39:57.102Z,8.7
2019-04-23T07:40:47.966Z,8.2
2019-04-23T07:41:59.406Z,9.5
2019-04-23T07:42:53.086Z,9.1
2019-04-23T07:44:02.730Z,8.8
2019-04-23T07:44:56.387Z,7.9
2019-04-23T07:46:08.133Z,8.9
2019-04-23T07:47:11.557Z,8.8
2019-04-23T07:48:08.032Z,8.2
2019-04-23T07:48:56.740Z,8.2
2019-04-23T07:50:09.538Z,8.3
2019-04-23T07:51:14.085Z,8.4
2019-04-23T07:52:11.053Z,9.3
2019-04-23T07:54:11.359Z,8.4
2019-04-23T07:55:13.740Z,8.6
2019-04-23T07:56:07.356Z,8.4
2019-04-23T07:57:15.391Z,7.9
2019-04-23T07:58:19.565Z,8.3
2019-04-23T07:59:14.279Z,9.2
2019-04-23T08:00:35.323Z,8.5
2019-04-23T08:01:12.532Z,9.2
2019-04-23T08:02:19.385Z,8.7
2019-04-23T08:03:30.724Z,8.5
2019-04-23T08:04:18.311Z,9.0
2019-04-23T08:05:22.820Z,8.5
2019-04-23T08:06:17.938Z,8.5
2019-04-23T08:07:19.942Z,8.1
2019-04-23T08:08:16.737Z,8.4
2019-04-23T08:09:30.098Z,8.9
2019-04-23T08:10:27.828Z,8.9
2019-04-23T08:11:34.317Z,9.1
2019-04-23T08:12:32.046Z,8.7
2019-04-23T08:13:39.801Z,8.9
2019-04-23T08:14:32.975Z,8.1
2019-04-23T08:15:36.948Z,8.4
2019-04-23T08:16:33.603Z,7.9
2019-04-23T08:17:37.514Z,8.7
2019-04-23T08:18:36.537Z,8.3
2019-04-23T08:20:46.978Z,8.6
2019-04-23T08:21:36.344Z,8.7
2019-04-23T08:22:40.219Z,8.4
2019-04-23T08:23:44.101Z,8.2
2019-04-23T08:24:50.574Z,8.2
2019-04-23T08:25:56.391Z,8.2
2019-04-23T08:26:52.060Z,8.5
2019-04-23T08:27:42.146Z,8.4
2019-04-23T08:28:58.357Z,8.6
2019-04-23T08:29:48.831Z,8.0
2019-04-23T08:30:52.785Z,8.2
2019-04-23T08:32:00.640Z,8.3
2019-04-23T08:32:57.618Z,9.3
2019-04-23T08:34:11.083Z,8.1
2019-04-23T08:34:58.803Z,8.2
2019-04-23T08:36:04.056Z,7.8
2019-04-23T08:37:05.078Z,8.4
2019-04-23T08:38:11.947Z,8.5
2019-04-23T08:39:05.477Z,8.1
2019-04-23T08:40:02.517Z,8.0
2019-04-23T08:41:20.644Z,8.9
2019-04-23T08:42:28.446Z,7.9
2019-04-23T08:43:20.881Z,8.1
2019-04-23T08:44:18.274Z,8.5
2019-04-23T08:45:15.396Z,8.4
2019-04-23T08:46:13.982Z,8.8
2019-04-23T08:49:25.760Z,8.4
2019-04-23T08:50:21.593Z,7.7
2019-04-23T08:51:28.363Z,8.2
2019-04-23T08:52:18.244Z,8.4
2019-04-23T08:54:39.713Z,8.2
2019-04-23T08:56:38.631Z,8.2
2019-04-23T08:57:30.472Z,8.6
2019-04-23T09:01:37.477Z,8.7
2019-04-23T09:02:47.691Z,8.4
2019-04-23T09:04:50.267Z,8.1
2019-04-23T09:05:46.805Z,8.2
2019-04-23T09:06:36.997Z,8.4
2019-04-23T09:07:45.342Z,8.1
2019-04-23T09:08:48.065Z,7.8
2019-04-23T09:09:55.173Z,7.5
2019-04-23T09:10:47.950Z,8.6
2019-04-23T09:11:59.503Z,8.1
2019-04-23T09:13:01.081Z,7.7
2019-04-23T09:14:58.348Z,8.3
2019-04-23T09:15:55.472Z,7.3
2019-04-23T09:16:58.043Z,7.9
2019-04-23T09:19:02.655Z,8.0
2019-04-23T09:21:03.572Z,8.0
2019-04-23T09:22:08.960Z,7.6
2019-04-23T09:22:55.073Z,8.0
2019-04-23T09:24:07.324Z,7.9
2019-04-23T09:25:11.624Z,7.7
2019-04-23T09:26:05.472Z,7.9
2019-04-23T09:27:23.367Z,7.8
2019-04-23T09:28:12.995Z,8.5
2019-04-23T09:29:14.763Z,7.4
2019-04-23T09:30:13.499Z,6.9
2019-04-23T09:33:28.300Z,8.1
2019-04-23T09:34:17.118Z,8.0
2019-04-23T09:35:24.435Z,8.0
2019-04-23T09:36:20.467Z,7.2
2019-04-23T09:38:43.260Z,7.8
2019-04-23T09:39:27.728Z,7.8
2019-04-23T09:40:39.126Z,8.0
2019-04-23T09:42:31.979Z,7.5
2019-04-23T09:45:46.128Z,7.7
2019-04-23T09:46:53.205Z,7.8
2019-04-23T09:48:48.532Z,7.8
2019-04-23T09:49:44.416Z,7.8
2019-04-23T09:50:41.579Z,7.4
2019-04-23T09:51:45.197Z,6.7
2019-04-23T09:53:00.269Z,7.5
2019-04-23T09:53:48.793Z,7.4
2019-04-23T09:55:11.997Z,7.4
2019-04-23T09:55:41.768Z,7.1
2019-04-23T09:56:47.431Z,7.5
2019-04-23T09:58:00.589Z,6.7
2019-04-23T09:58:51.741Z,7.5
2019-04-23T09:59:55.017Z,7.0
2019-04-23T10:00:52.679Z,7.2
2019-04-23T10:01:45.474Z,7.1
2019-04-23T10:02:40.916Z,7.6
2019-04-23T10:03:41.226Z,7.4
2019-04-23T10:04:44.826Z,6.6
2019-04-23T10:05:45.096Z,6.8
2019-04-23T10:06:36.480Z,6.9
2019-04-23T10:07:44.249Z,6.9
2019-04-23T10:08:39.519Z,7.3
2019-04-23T10:09:34.249Z,7.4
2019-04-23T10:10:34.433Z,7.7
2019-04-23T10:11:35.131Z,7.8
2019-04-23T10:12:35.902Z,7.3
2019-04-23T10:13:36.545Z,7.0
2019-04-23T10:14:38.558Z,7.2
2019-04-23T10:15:41.119Z,7.5
2019-04-23T10:16:38.889Z,6.9
2019-04-23T10:17:40.276Z,7.2
2019-04-23T10:18:41.367Z,7.5
2019-04-23T10:19:40.826Z,8.1
2019-04-23T10:20:42.646Z,8.2
2019-04-23T10:21:43.644Z,8.1
2019-04-23T10:22:44.149Z,8.3
2019-04-23T10:23:43.481Z,7.3
2019-04-23T10:24:45.447Z,7.7
2019-04-23T10:25:45.789Z,7.4
2019-04-23T10:26:46.076Z,7.4
2019-04-23T10:27:52.951Z,7.6
2019-04-23T10:28:47.668Z,7.9
2019-04-23T10:29:47.939Z,6.8
2019-04-23T10:30:49.058Z,7.8
2019-04-23T10:31:49.381Z,7.5
2019-04-23T10:32:49.744Z,7.2
2019-04-23T10:33:50.553Z,7.0
2019-04-23T10:35:03.829Z,7.2
2019-04-23T10:36:00.332Z,7.0
2019-04-23T10:36:53.639Z,6.7
2019-04-23T10:38:01.820Z,7.1
2019-04-23T10:39:00.660Z,7.0
2019-04-23T10:39:59.245Z,7.5
2019-04-23T10:40:56.134Z,7.8
2019-04-23T10:41:57.583Z,7.4
2019-04-23T10:42:59.704Z,7.3
2019-04-23T10:43:58.710Z,7.0
2019-04-23T10:45:10.903Z,7.9
2019-04-23T10:46:16.946Z,7.7
2019-04-23T10:47:25.440Z,7.4
2019-04-23T10:48:33.029Z,7.1
2019-04-23T10:50:40.649Z,6.7
2019-04-23T10:51:33.871Z,6.7
2019-04-23T10:52:36.362Z,7.0
2019-04-23T10:53:39.940Z,7.0
2019-04-23T10:54:43.372Z,6.7
2019-04-23T10:55:46.784Z,6.8
2019-04-23T10:56:46.612Z,7.2
2019-04-23T10:57:39.180Z,6.7
2019-04-23T10:58:39.279Z,6.7
2019-04-23T10:59:44.720Z,7.3
2019-04-23T11:00:44.979Z,6.7
2019-04-23T11:01:56.630Z,7.5
2019-04-23T11:02:48.810Z,7.3
2019-04-23T11:05:59.059Z,6.8
2019-04-23T11:07:17.080Z,7.5
2019-04-23T11:07:47.190Z,6.8
2019-04-23T11:09:10.191Z,6.6
2019-04-23T11:10:03.686Z,6.7
2019-04-23T11:11:09.295Z,7.1
2019-04-23T11:12:12.510Z,5.8
2019-04-23T11:13:10.759Z,6.6
2019-04-23T11:14:13.389Z,6.8
2019-04-23T11:15:22.839Z,7.1
2019-04-23T11:16:40.056Z,6.9
2019-04-23T11:17:19.042Z,7.4
2019-04-23T11:18:06.852Z,6.6
2019-04-23T11:19:21.168Z,7.0
2019-04-23T11:20:27.397Z,7.3
2019-04-23T11:21:23.745Z,7.4
2019-04-23T11:22:36.154Z,6.7
2019-04-23T11:23:15.055Z,6.8
2019-04-23T11:24:30.517Z,7.2
2019-04-23T11:25:32.973Z,7.3
2019-04-23T11:26:28.582Z,6.9
2019-04-23T11:27:32.924Z,7.4
2019-04-23T11:28:27.425Z,8.5
2019-04-23T11:29:35.668Z,7.3
2019-04-23T11:30:32.599Z,7.1
2019-04-23T11:31:39.268Z,7.3
2019-04-23T11:33:51.844Z,7.7
2019-04-23T11:34:56.749Z,7.3
2019-04-23T11:36:01.386Z,7.4
2019-04-23T11:39:45.066Z,6.6
2019-04-23T11:40:40.398Z,7.0
2019-04-23T11:41:51.729Z,6.9
2019-04-23T11:42:49.616Z,6.9
2019-04-23T11:43:46.434Z,7.5
2019-04-23T11:44:46.091Z,6.6
2019-04-23T11:49:19.904Z,7.6
2019-04-23T11:52:17.804Z,6.9
2019-04-23T11:53:07.386Z,6.8
2019-04-23T11:54:07.447Z,7.2
2019-04-23T11:55:22.803Z,7.4
2019-04-23T11:56:12.115Z,7.3
2019-04-23T11:58:13.594Z,6.8
2019-04-23T11:59:16.349Z,7.4
2019-04-23T12:00:13.826Z,7.8
2019-04-23T12:02:12.039Z,7.3
2019-04-23T12:03:07.706Z,6.5
2019-04-23T12:05:26.907Z,6.9
2019-04-23T12:06:25.063Z,7.2
2019-04-23T12:07:22.831Z,6.9
2019-04-23T12:08:36.805Z,6.7
2019-04-23T12:09:38.219Z,6.3
2019-04-23T12:12:33.355Z,7.1
2019-04-23T12:13:38.321Z,7.2
2019-04-23T12:15:39.654Z,7.1
2019-04-23T12:16:50.502Z,7.6
2019-04-23T12:17:50.808Z,6.8
2019-04-23T12:18:58.155Z,7.7
2019-04-23T12:20:41.267Z,7.0
2019-04-23T12:21:52.464Z,7.1
2019-04-23T12:22:51.287Z,6.6
2019-04-23T12:25:06.546Z,6.7
2019-04-23T12:26:15.520Z,7.2
2019-04-23T12:27:00.132Z,7.1
2019-04-23T12:27:42.436Z,6.1
2019-04-23T12:29:52.303Z,7.4
2019-04-23T12:32:09.012Z,7.1
2019-04-23T12:33:21.449Z,6.9
2019-04-23T12:34:09.872Z,6.7
2019-04-23T12:35:03.747Z,7.1
2019-04-23T12:36:09.253Z,6.1
2019-04-23T12:37:06.362Z,6.0
2019-04-23T12:38:14.211Z,6.6
2019-04-23T12:39:14.878Z,6.5
2019-04-23T12:41:14.692Z,6.9
2019-04-23T12:42:38.301Z,7.1
2019-04-23T12:44:17.825Z,5.9
2019-04-23T12:46:19.856Z,6.2
2019-04-23T12:47:36.301Z,6.6
2019-04-23T12:51:37.969Z,6.4
2019-04-23T12:53:30.589Z,6.6
2019-04-23T12:54:42.636Z,6.3
2019-04-23T12:56:46.428Z,6.2
2019-04-23T12:57:34.375Z,6.2
2019-04-23T12:58:38.215Z,6.7
2019-04-23T12:59:36.803Z,7.1
2019-04-23T13:01:44.267Z,6.5
2019-04-23T13:02:48.568Z,6.8
2019-04-23T13:03:40.160Z,6.2
2019-04-23T13:04:51.757Z,7.3
2019-04-23T13:05:34.197Z,6.9
2019-04-23T13:06:47.983Z,5.8
2019-04-23T13:07:43.571Z,6.7
2019-04-23T13:09:01.471Z,6.6
2019-04-23T13:09:53.610Z,7.5
2019-04-23T13:10:45.284Z,7.2
2019-04-23T13:11:49.685Z,6.8
2019-04-23T13:13:04.497Z,6.8
2019-04-23T13:13:56.369Z,6.6
2019-04-23T13:14:56.039Z,7.0
2019-04-23T13:15:55.220Z,6.2
2019-04-23T13:17:22.280Z,6.4
2019-04-23T13:17:53.840Z,6.5
2019-04-23T13:19:03.578Z,7.3
2019-04-23T13:20:00.555Z,6.8
2019-04-23T13:21:14.287Z,6.8
2019-04-23T13:22:07.558Z,6.8
2019-04-23T13:23:15.231Z,6.4
2019-04-23T13:24:04.164Z,7.3
2019-04-23T13:25:10.119Z,6.4
2019-04-23T13:26:05.697Z,6.4
2019-04-23T13:27:12.017Z,7.4
2019-04-23T13:29:24.579Z,6.1
2019-04-23T13:31:18.107Z,7.0
2019-04-23T13:32:23.587Z,6.2
2019-04-23T13:33:30.747Z,6.4
2019-04-23T13:34:23.029Z,6.4
2019-04-23T13:36:27.947Z,5.9
2019-04-23T13:37:31.544Z,5.7
2019-04-23T13:38:34.339Z,6.5
2019-04-23T13:39:24.590Z,6.4
2019-04-23T13:40:35.279Z,6.4
2019-04-23T13:41:33.508Z,5.9
2019-04-23T13:43:37.956Z,6.6
2019-04-23T13:44:36.485Z,6.1
2019-04-23T13:45:56.421Z,5.9
2019-04-23T13:46:36.804Z,6.1
2019-04-23T13:47:47.261Z,5.8
2019-04-23T13:48:34.481Z,6.1
2019-04-23T13:49:49.282Z,6.4
2019-04-23T13:50:49.898Z,6.7
2019-04-23T13:53:18.385Z,5.7
2019-04-23T13:54:24.091Z,6.8
2019-04-23T13:55:09.332Z,5.7
2019-04-23T13:56:01.946Z,7.2
2019-04-23T13:57:36.540Z,6.3
2019-04-23T13:58:15.024Z,6.1
2019-04-23T14:00:07.111Z,6.4
2019-04-23T14:02:17.062Z,5.9
2019-04-23T14:03:12.956Z,6.3
2019-04-23T14:04:18.090Z,6.0
2019-04-23T14:05:17.659Z,6.2
2019-04-23T14:07:24.895Z,6.5
2019-04-23T14:08:31.063Z,6.2
2019-04-23T14:09:31.971Z,6.2
2019-04-23T14:12:24.156Z,6.3
2019-04-23T14:14:43.740Z,6.9
2019-04-23T14:19:34.299Z,6.1
2019-04-23T14:20:34.282Z,6.2
2019-04-23T14:21:42.400Z,6.1
2019-04-23T14:23:59.498Z,7.1
2019-04-23T14:25:04.912Z,5.8
2019-04-23T14:25:50.677Z,5.9
2019-04-23T14:26:38.358Z,6.1
2019-04-23T14:27:52.374Z,6.5
2019-04-23T14:29:56.501Z,6.1
2019-04-23T14:30:53.477Z,6.1
2019-04-23T14:31:53.289Z,5.9
2019-04-23T14:32:53.723Z,6.5
2019-04-23T14:34:01.651Z,6.2
2019-04-23T14:35:04.281Z,6.7
2019-04-23T14:35:50.920Z,7.0
2019-04-23T14:37:00.988Z,6.7
2019-04-23T14:38:09.771Z,6.2
2019-04-23T14:39:04.239Z,6.5
2019-04-23T14:40:01.569Z,6.6
2019-04-23T14:42:12.392Z,7.0
2019-04-23T14:43:06.456Z,7.7
2019-04-23T14:44:13.055Z,7.1
2019-04-23T14:45:25.349Z,7.0
2019-04-23T14:46:35.236Z,6.5
2019-04-23T14:47:22.329Z,6.8
2019-04-23T14:48:17.705Z,6.2
2019-04-23T14:49:25.900Z,6.3
2019-04-23T14:50:28.153Z,6.5
2019-04-23T14:52:21.418Z,7.2
2019-04-23T14:53:18.224Z,6.1
2019-04-23T14:54:23.529Z,6.8
2019-04-23T14:57:42.500Z,6.7
2019-04-23T14:59:13.495Z,6.8
2019-04-23T15:01:36.279Z,6.4
2019-04-23T15:02:36.591Z,6.7
2019-04-23T15:04:43.675Z,5.7
2019-04-23T15:05:45.790Z,6.1
2019-04-23T15:07:46.552Z,6.3
2019-04-23T15:09:43.097Z,6.9
2019-04-23T15:10:57.417Z,7.1
2019-04-23T15:13:01.849Z,6.5
2019-04-23T15:13:52.160Z,7.0
2019-04-23T15:14:59.851Z,6.9
2019-04-23T15:16:04.270Z,7.8
2019-04-23T15:16:54.704Z,7.2
2019-04-23T15:17:56.092Z,7.8
2019-04-23T15:19:55.155Z,6.7
2019-04-23T15:21:25.547Z,6.6
2019-04-23T15:23:02.790Z,7.3
2019-04-23T15:24:04.061Z,7.5
2019-04-23T15:26:51.152Z,7.3
2019-04-23T15:28:07.577Z,7.2
2019-04-23T15:28:52.388Z,7.0
2019-04-23T15:29:58.192Z,7.2
2019-04-23T15:32:18.691Z,7.6
2019-04-23T15:33:19.225Z,7.8
2019-04-23T15:34:17.687Z,7.3
2019-04-23T15:35:22.087Z,7.6
2019-04-23T15:36:47.097Z,7.9
2019-04-23T15:39:21.394Z,7.9
2019-04-23T15:40:20.945Z,7.8
2019-04-23T15:42:40.345Z,8.0
2019-04-23T15:43:49.549Z,7.8
2019-04-23T15:44:23.098Z,7.2
2019-04-23T15:45:28.538Z,8.4
2019-04-23T15:46:37.187Z,7.8
2019-04-23T15:47:32.981Z,7.7
2019-04-23T15:48:31.391Z,8.0
2019-04-23T15:50:53.850Z,8.2
2019-04-23T15:51:38.967Z,7.4
2019-04-23T15:52:44.276Z,8.0
2019-04-23T15:53:40.994Z,7.4
2019-04-23T15:54:37.170Z,7.6
2019-04-23T15:55:54.406Z,7.3
2019-04-23T15:56:50.095Z,7.5
2019-04-23T15:58:00.893Z,7.4
2019-04-23T15:59:15.190Z,6.9
2019-04-23T15:59:47.945Z,7.4
2019-04-23T16:00:55.800Z,7.6
2019-04-23T16:01:41.215Z,7.7
2019-04-23T16:02:24.651Z,8.1
2019-04-23T16:03:28.984Z,7.5
2019-04-23T16:04:27.496Z,7.3
2019-04-23T16:05:27.824Z,7.7
2019-04-23T16:06:30.928Z,8.0
2019-04-23T16:07:44.213Z,7.8
2019-04-23T16:09:04.762Z,8.5
2019-04-23T16:10:04.327Z,7.7
2019-04-23T16:11:10.352Z,8.1
2019-04-23T16:11:52.649Z,7.9
2019-04-23T16:13:02.492Z,7.4
2019-04-23T16:14:16.724Z,8.8
2019-04-23T16:16:10.635Z,7.5
2019-04-23T16:17:08.228Z,8.1
2019-04-23T16:18:18.927Z,8.0
2019-04-23T16:19:17.614Z,7.5
2019-04-23T16:20:17.404Z,8.1
2019-04-23T16:22:11.032Z,8.3
2019-04-23T16:23:17.794Z,8.4
2019-04-23T16:25:13.333Z,7.3
2019-04-23T16:26:23.085Z,7.8
2019-04-23T16:28:38.471Z,7.3
2019-04-23T16:31:32.171Z,8.2
2019-04-23T16:33:22.034Z,8.0
2019-04-23T16:34:29.196Z,8.2
2019-04-23T16:35:33.008Z,7.5
2019-04-23T16:36:35.884Z,8.0
2019-04-23T16:37:36.187Z,8.0
2019-04-23T16:38:38.798Z,7.7
2019-04-23T16:39:39.307Z,7.3
2019-04-23T16:40:39.524Z,7.4
2019-04-23T16:41:39.948Z,7.9
2019-04-23T16:42:39.985Z,8.8
2019-04-23T16:43:42.191Z,8.4
2019-04-23T16:45:01.214Z,8.4
2019-04-23T16:45:45.489Z,7.5
2019-04-23T16:46:54.203Z,8.1
2019-04-23T16:47:46.829Z,8.6
2019-04-23T16:48:58.186Z,7.4
2019-04-23T16:49:57.581Z,8.0
2019-04-23T16:51:12.261Z,8.3
2019-04-23T16:51:45.962Z,8.0
2019-04-23T16:53:02.956Z,7.9
2019-04-23T16:53:54.239Z,9.0
2019-04-23T16:56:04.225Z,7.4
2019-04-23T16:58:13.002Z,7.9
2019-04-23T16:59:10.708Z,8.2
2019-04-23T17:00:12.968Z,7.6
2019-04-23T17:01:08.544Z,8.1
2019-04-23T17:02:12.306Z,8.3
2019-04-23T17:03:07.250Z,8.7
2019-04-23T17:04:19.608Z,7.8
2019-04-23T17:05:14.314Z,8.7
2019-04-23T17:06:24.237Z,8.3
2019-04-23T17:07:07.047Z,7.8
2019-04-23T17:08:37.414Z,7.9
2019-04-23T17:09:35.620Z,8.5
2019-04-23T17:10:19.155Z,8.2
2019-04-23T17:11:19.017Z,7.9
2019-04-23T17:12:38.718Z,8.4
2019-04-23T17:13:21.141Z,7.9
2019-04-23T17:14:19.111Z,8.5
2019-04-23T17:15:27.565Z,8.6
2019-04-23T17:16:28.389Z,8.3
2019-04-23T17:17:23.014Z,8.7